createdAt,value
2019-02-26T00:01:03.685Z,37.13
2019-02-26T00:03:53.226Z,39.13
2019-02-26T00:06:47.192Z,36.68
2019-02-26T00:09:35.333Z,36.08
2019-02-26T00:12:26.458Z,35.28
2019-02-26T00:15:17.056Z,34.78
2019-02-26T00:18:09.424Z,34.13
2019-02-26T00:20:59.029Z,33.02
2019-02-26T00:23:51.436Z,31.68
2019-02-26T00:26:42.793Z,34.70
2019-02-26T00:29:32.511Z,36.98
2019-02-26T00:32:22.135Z,35.43
2019-02-26T00:35:11.792Z,37.67
2019-02-26T00:38:01.682Z,36.53
2019-02-26T00:40:51.666Z,35.20
2019-02-26T00:43:41.092Z,36.40
2019-02-26T00:46:32.601Z,38.55
2019-02-26T00:49:23.631Z,38.25
2019-02-26T00:52:15.580Z,37.13
2019-02-26T00:55:07.124Z,35.60
2019-02-26T00:57:58.839Z,39.42
2019-02-26T01:00:48.285Z,41.33
2019-02-26T01:03:40.027Z,39.42
2019-02-26T01:06:31.036Z,39.27
2019-02-26T01:09:20.725Z,38.85
2019-02-26T01:12:11.817Z,34.95
2019-02-26T01:15:03.133Z,38.00
2019-02-26T01:17:54.984Z,33.85
2019-02-26T01:20:43.728Z,34.95
2019-02-26T01:23:33.572Z,35.45
2019-02-26T01:26:27.318Z,36.68
2019-02-26T01:29:18.523Z,35.73
2019-02-26T01:32:15.525Z,35.43
2019-02-26T01:35:08.889Z,32.90
2019-02-26T01:38:00.293Z,34.53
2019-02-26T01:40:51.871Z,36.17
2019-02-26T01:43:40.583Z,35.73
2019-02-26T01:46:32.128Z,35.33
2019-02-26T01:49:23.583Z,32.25
2019-02-26T01:52:14.973Z,34.83
2019-02-26T01:55:05.016Z,35.88
2019-02-26T01:57:58.519Z,32.28
2019-02-26T02:00:45.725Z,33.18
2019-02-26T02:03:34.952Z,34.85
2019-02-26T02:06:25.035Z,39.73
2019-02-26T02:09:16.355Z,35.25
2019-02-26T02:12:07.113Z,36.75
2019-02-26T02:14:57.476Z,36.45
2019-02-26T02:17:47.002Z,37.50
2019-02-26T02:20:37.132Z,37.33
2019-02-26T02:23:28.099Z,37.08
2019-02-26T02:26:17.932Z,39.18
2019-02-26T02:29:07.582Z,34.90
2019-02-26T02:31:59.540Z,34.20
2019-02-26T02:34:48.694Z,35.80
2019-02-26T02:37:38.435Z,35.13
2019-02-26T02:40:28.255Z,35.35
2019-02-26T02:43:20.386Z,34.60
2019-02-26T02:46:09.176Z,32.15
2019-02-26T02:48:58.573Z,36.93
2019-02-26T02:51:48.595Z,41.42
2019-02-26T02:54:39.271Z,41.05
2019-02-26T02:57:32.009Z,36.95
2019-02-26T03:00:25.330Z,39.40
2019-02-26T03:03:12.903Z,39.25
2019-02-26T03:06:04.887Z,41.20
2019-02-26T03:08:54.446Z,38.67
2019-02-26T03:11:46.313Z,40.58
2019-02-26T03:14:38.357Z,38.92
2019-02-26T03:17:26.460Z,36.73
2019-02-26T03:20:16.311Z,41.85
2019-02-26T03:23:07.316Z,42.40
2019-02-26T03:25:57.205Z,42.95
2019-02-26T03:28:48.008Z,47.03
2019-02-26T03:31:40.546Z,49.23
2019-02-26T03:34:28.495Z,45.03
2019-02-26T03:37:18.380Z,48.95
2019-02-26T03:40:08.226Z,50.08
2019-02-26T03:42:58.388Z,48.55
2019-02-26T03:45:48.261Z,48.15
2019-02-26T03:48:37.905Z,49.48
2019-02-26T03:51:28.273Z,50.98
2019-02-26T03:54:18.066Z,52.13
2019-02-26T03:57:09.034Z,44.77
2019-02-26T03:59:59.590Z,45.55
2019-02-26T04:02:51.740Z,45.20
2019-02-26T04:05:40.919Z,45.35
2019-02-26T04:08:31.033Z,41.85
2019-02-26T04:11:22.838Z,44.20
2019-02-26T04:14:12.675Z,38.50
2019-02-26T04:17:04.161Z,40.48
2019-02-26T04:19:54.793Z,39.23
2019-02-26T04:22:48.967Z,42.70
2019-02-26T04:25:52.099Z,42.95
2019-02-26T04:28:53.226Z,38.98
2019-02-26T04:32:15.032Z,39.23
2019-02-26T04:35:27.653Z,38.02
2019-02-26T04:39:01.050Z,40.75
2019-02-26T04:42:00.655Z,35.52
2019-02-26T04:45:23.825Z,43.00
2019-02-26T04:48:17.109Z,40.20
2019-02-26T04:51:04.643Z,42.10
2019-02-26T04:53:56.212Z,44.53
2019-02-26T04:56:47.850Z,43.33
2019-02-26T04:59:38.711Z,41.92
2019-02-26T05:02:28.512Z,43.63
2019-02-26T05:05:18.146Z,40.83
2019-02-26T05:08:10.503Z,40.33
2019-02-26T05:11:00.005Z,39.35
2019-02-26T05:13:49.525Z,39.20
2019-02-26T05:16:40.377Z,39.98
2019-02-26T05:19:31.660Z,40.30
2019-02-26T05:22:22.697Z,38.85
2019-02-26T05:25:16.734Z,41.98
2019-02-26T05:28:06.297Z,36.13
2019-02-26T05:30:55.462Z,44.95
2019-02-26T05:33:46.804Z,44.48
2019-02-26T05:36:39.631Z,40.23
2019-02-26T05:39:28.870Z,39.05
2019-02-26T05:42:18.983Z,39.00
2019-02-26T05:45:09.542Z,39.05
2019-02-26T05:47:59.585Z,42.10
2019-02-26T05:50:49.357Z,43.60
2019-02-26T05:53:39.108Z,39.40
2019-02-26T05:56:28.682Z,40.78
2019-02-26T05:59:21.472Z,40.92
2019-02-26T06:02:13.265Z,39.50
2019-02-26T06:05:02.565Z,38.40
2019-02-26T06:07:52.633Z,37.93
2019-02-26T06:10:42.603Z,36.75
2019-02-26T06:13:35.506Z,39.30
2019-02-26T06:16:24.898Z,39.27
2019-02-26T06:19:18.154Z,39.55
2019-02-26T06:22:11.593Z,38.80
2019-02-26T06:25:00.263Z,38.98
2019-02-26T06:27:49.695Z,45.03
2019-02-26T06:30:39.791Z,41.53
2019-02-26T06:33:34.157Z,43.85
2019-02-26T06:36:21.633Z,46.73
2019-02-26T06:39:12.385Z,45.60
2019-02-26T06:42:03.013Z,48.90
2019-02-26T06:44:53.006Z,41.23
2019-02-26T06:47:42.542Z,48.85
2019-02-26T06:50:33.923Z,47.67
2019-02-26T06:53:23.254Z,46.75
2019-02-26T06:56:12.652Z,43.35
2019-02-26T06:59:10.310Z,44.40
2019-02-26T07:02:01.041Z,46.13
2019-02-26T07:04:51.070Z,47.00
2019-02-26T07:07:40.917Z,46.75
2019-02-26T07:10:31.286Z,45.85
2019-02-26T07:13:22.147Z,46.75
2019-02-26T07:16:12.357Z,49.83
2019-02-26T07:19:03.744Z,48.20
2019-02-26T07:21:53.060Z,49.03
2019-02-26T07:24:44.577Z,49.67
2019-02-26T07:27:34.186Z,50.55
2019-02-26T07:30:24.690Z,47.88
2019-02-26T07:33:15.043Z,51.18
2019-02-26T07:36:06.106Z,51.13
2019-02-26T07:38:56.536Z,49.67
2019-02-26T07:41:47.107Z,49.58
2019-02-26T07:44:37.575Z,49.88
2019-02-26T07:47:29.385Z,51.23
2019-02-26T07:50:18.505Z,44.93
2019-02-26T07:53:07.814Z,46.60
2019-02-26T07:55:58.817Z,43.87
2019-02-26T07:58:48.932Z,43.30
2019-02-26T08:01:39.889Z,44.20
2019-02-26T08:04:31.770Z,47.73
2019-02-26T08:07:23.913Z,45.12
2019-02-26T08:10:16.988Z,42.13
2019-02-26T08:13:08.059Z,43.95
2019-02-26T08:16:00.124Z,37.95
2019-02-26T08:18:51.677Z,41.58
2019-02-26T08:21:40.552Z,40.90
2019-02-26T08:24:30.055Z,39.38
2019-02-26T08:27:20.726Z,38.67
2019-02-26T08:30:17.756Z,33.33
2019-02-26T08:33:07.398Z,37.05
2019-02-26T08:35:57.496Z,34.98
2019-02-26T08:38:47.365Z,38.78
2019-02-26T08:41:37.442Z,38.48
2019-02-26T08:44:28.176Z,36.55
2019-02-26T08:47:19.254Z,38.38
2019-02-26T08:50:12.251Z,36.73
2019-02-26T08:53:01.385Z,37.15
2019-02-26T08:55:51.598Z,36.03
2019-02-26T08:58:42.891Z,38.55
2019-02-26T09:01:33.828Z,38.38
2019-02-26T09:04:23.990Z,37.67
2019-02-26T09:07:14.175Z,36.68
2019-02-26T09:10:07.183Z,36.40
2019-02-26T09:12:56.448Z,36.48
2019-02-26T09:15:46.095Z,35.38
2019-02-26T09:18:38.128Z,33.85
2019-02-26T09:21:27.029Z,39.23
2019-02-26T09:24:16.596Z,33.35
2019-02-26T09:27:06.181Z,34.80
2019-02-26T09:29:55.955Z,33.78
2019-02-26T09:32:45.981Z,32.28
2019-02-26T09:35:35.352Z,32.10
2019-02-26T09:38:25.598Z,33.05
2019-02-26T09:41:16.695Z,31.57
2019-02-26T09:44:08.619Z,32.93
2019-02-26T09:47:00.042Z,33.73
2019-02-26T09:49:51.501Z,33.92
2019-02-26T09:52:40.905Z,32.53
2019-02-26T09:55:31.058Z,33.02
2019-02-26T09:58:22.887Z,35.78
2019-02-26T10:01:13.555Z,36.03
2019-02-26T10:04:05.383Z,34.92
2019-02-26T10:06:55.101Z,34.18
2019-02-26T10:09:47.947Z,38.48
2019-02-26T10:12:37.031Z,41.10
2019-02-26T10:15:27.918Z,38.25
2019-02-26T10:18:17.784Z,36.58
2019-02-26T10:21:09.114Z,39.30
2019-02-26T10:23:59.446Z,40.25
2019-02-26T10:26:49.892Z,40.05
2019-02-26T10:29:41.961Z,46.42
2019-02-26T10:32:32.797Z,40.78
2019-02-26T10:35:32.358Z,42.73
2019-02-26T10:38:14.747Z,41.37
2019-02-26T10:41:05.095Z,40.05
2019-02-26T10:43:55.253Z,41.48
2019-02-26T10:46:44.815Z,41.23
2019-02-26T10:49:35.089Z,38.78
2019-02-26T10:52:26.347Z,39.85
2019-02-26T10:55:17.735Z,43.13
2019-02-26T10:58:11.065Z,41.23
2019-02-26T11:00:59.469Z,38.80
2019-02-26T11:03:52.170Z,47.00
2019-02-26T11:06:43.801Z,44.35
2019-02-26T11:09:33.090Z,42.67
2019-02-26T11:12:25.197Z,42.93
2019-02-26T11:15:14.827Z,43.65
2019-02-26T11:18:04.443Z,42.38
2019-02-26T11:20:56.026Z,43.10
2019-02-26T11:23:46.418Z,43.68
2019-02-26T11:26:38.264Z,42.88
2019-02-26T11:29:28.651Z,43.00
2019-02-26T11:32:19.035Z,42.85
2019-02-26T11:35:10.535Z,45.70
2019-02-26T11:38:00.191Z,47.88
2019-02-26T11:40:49.774Z,45.12
2019-02-26T11:43:39.501Z,42.50
2019-02-26T11:46:34.091Z,42.65
2019-02-26T11:49:21.916Z,43.92
2019-02-26T11:52:11.827Z,40.67
2019-02-26T11:55:05.795Z,39.83
2019-02-26T11:57:54.174Z,43.78
2019-02-26T12:00:50.628Z,43.25
2019-02-26T12:03:41.642Z,46.05
2019-02-26T12:06:32.216Z,44.73
2019-02-26T12:09:22.072Z,42.58
2019-02-26T12:12:11.711Z,40.08
2019-02-26T12:15:04.145Z,40.10
2019-02-26T12:17:54.150Z,42.85
2019-02-26T12:20:46.589Z,40.12
2019-02-26T12:23:37.375Z,41.00
2019-02-26T12:26:30.190Z,38.85
2019-02-26T12:29:21.060Z,38.60
2019-02-26T12:32:11.392Z,41.05
2019-02-26T12:35:03.311Z,36.17
2019-02-26T12:37:55.275Z,37.13
2019-02-26T12:40:46.899Z,35.78
2019-02-26T12:43:36.794Z,32.42
2019-02-26T12:46:27.514Z,31.93
2019-02-26T12:49:18.051Z,28.52
2019-02-26T12:52:08.248Z,30.82
2019-02-26T12:55:00.115Z,28.60
2019-02-26T12:57:49.980Z,27.85
2019-02-26T13:00:42.006Z,29.57
2019-02-26T13:03:31.784Z,28.17
2019-02-26T13:06:22.809Z,30.20
2019-02-26T13:09:12.753Z,32.17
2019-02-26T13:12:02.938Z,28.93
2019-02-26T13:14:54.591Z,30.80
2019-02-26T13:17:48.899Z,30.17
2019-02-26T13:20:38.280Z,29.37
2019-02-26T13:23:28.241Z,32.03
2019-02-26T13:26:19.743Z,34.67
2019-02-26T13:29:08.864Z,34.70
2019-02-26T13:31:59.939Z,33.23
2019-02-26T13:34:56.519Z,32.40
2019-02-26T13:37:44.361Z,34.67
2019-02-26T13:40:38.558Z,33.87
2019-02-26T13:43:25.347Z,36.10
2019-02-26T13:46:15.138Z,33.37
2019-02-26T13:49:04.660Z,37.08
2019-02-26T13:51:54.824Z,35.05
2019-02-26T13:54:44.681Z,35.15
2019-02-26T13:57:34.241Z,36.47
2019-02-26T14:00:26.741Z,36.20
2019-02-26T14:03:15.045Z,35.20
2019-02-26T14:06:04.436Z,35.07
2019-02-26T14:08:54.207Z,34.20
2019-02-26T14:11:44.198Z,34.85
2019-02-26T14:14:35.238Z,36.50
2019-02-26T14:17:24.866Z,36.23
2019-02-26T14:20:14.551Z,37.75
2019-02-26T14:23:04.302Z,35.48
2019-02-26T14:25:54.356Z,39.40
2019-02-26T14:28:44.114Z,33.85
2019-02-26T14:31:34.108Z,36.05
2019-02-26T14:34:23.661Z,32.78
2019-02-26T14:37:13.341Z,35.63
2019-02-26T14:40:07.291Z,36.08
2019-02-26T14:42:57.620Z,36.23
2019-02-26T14:45:47.090Z,34.70
2019-02-26T14:48:37.076Z,37.95
2019-02-26T14:51:26.535Z,39.58
2019-02-26T14:54:16.333Z,39.25
2019-02-26T14:57:06.228Z,39.23
2019-02-26T14:59:56.035Z,38.95
2019-02-26T15:02:45.861Z,40.25
2019-02-26T15:05:35.990Z,36.58
2019-02-26T15:08:26.223Z,37.50
2019-02-26T15:11:16.132Z,34.13
2019-02-26T15:14:06.003Z,35.95
2019-02-26T15:16:55.782Z,35.00
2019-02-26T15:19:50.127Z,33.50
2019-02-26T15:22:37.418Z,34.73
2019-02-26T15:25:26.875Z,35.20
2019-02-26T15:28:16.649Z,35.48
2019-02-26T15:31:06.356Z,34.78
2019-02-26T15:33:56.355Z,32.78
2019-02-26T15:36:46.111Z,35.85
2019-02-26T15:39:35.994Z,31.68
2019-02-26T15:42:25.656Z,35.43
2019-02-26T15:45:20.164Z,32.28
2019-02-26T15:48:10.554Z,33.23
2019-02-26T15:51:00.611Z,36.05
2019-02-26T15:53:55.170Z,35.88
2019-02-26T15:56:41.931Z,33.08
2019-02-26T15:59:35.266Z,34.03
2019-02-26T16:02:22.923Z,34.00
2019-02-26T16:05:12.489Z,37.17
2019-02-26T16:08:01.962Z,35.83
2019-02-26T16:10:51.632Z,36.10
2019-02-26T16:13:41.525Z,36.28
2019-02-26T16:16:31.247Z,39.67
2019-02-26T16:19:22.020Z,34.60
2019-02-26T16:22:11.687Z,37.65
2019-02-26T16:25:01.447Z,35.10
2019-02-26T16:27:51.691Z,35.98
2019-02-26T16:30:42.972Z,35.50
2019-02-26T16:33:32.703Z,33.50
2019-02-26T16:36:22.622Z,32.67
2019-02-26T16:39:12.442Z,31.17
2019-02-26T16:42:01.883Z,32.30
2019-02-26T16:44:51.609Z,30.80
2019-02-26T16:47:41.456Z,32.85
2019-02-26T16:50:31.641Z,31.82
2019-02-26T16:53:21.881Z,33.33
2019-02-26T16:56:11.567Z,39.58
2019-02-26T16:59:01.625Z,34.08
2019-02-26T17:01:52.586Z,32.98
2019-02-26T17:04:44.020Z,30.20
2019-02-26T17:07:33.802Z,30.20
2019-02-26T17:10:23.035Z,31.15
2019-02-26T17:13:15.877Z,27.42
2019-02-26T17:16:05.672Z,27.65
2019-02-26T17:18:56.794Z,29.10
2019-02-26T17:21:46.766Z,30.52
2019-02-26T17:24:36.439Z,27.62
2019-02-26T17:27:27.250Z,26.10
2019-02-26T17:30:17.425Z,26.12
2019-02-26T17:33:11.415Z,26.12
2019-02-26T17:35:59.584Z,28.45
2019-02-26T17:38:51.497Z,25.05
2019-02-26T17:41:44.673Z,26.37
2019-02-26T17:44:31.959Z,25.17
2019-02-26T17:47:21.825Z,26.10
2019-02-26T17:50:14.050Z,25.88
2019-02-26T17:53:03.693Z,24.98
2019-02-26T17:55:53.126Z,26.62
2019-02-26T17:58:44.467Z,25.90
2019-02-26T18:01:34.499Z,29.35
2019-02-26T18:04:23.980Z,32.63
2019-02-26T18:07:13.971Z,37.60
2019-02-26T18:10:03.505Z,36.70
2019-02-26T18:12:54.093Z,34.20
2019-02-26T18:15:44.155Z,33.48
2019-02-26T18:18:34.388Z,30.62
2019-02-26T18:21:24.840Z,30.10
2019-02-26T18:24:14.579Z,25.85
2019-02-26T18:27:04.225Z,29.55
2019-02-26T18:29:54.498Z,29.27
2019-02-26T18:32:49.946Z,26.93
2019-02-26T18:35:35.031Z,29.10
2019-02-26T18:38:24.952Z,28.40
2019-02-26T18:41:14.710Z,28.02
2019-02-26T18:44:07.235Z,28.05
2019-02-26T18:46:56.833Z,31.15
2019-02-26T18:49:46.232Z,30.00
2019-02-26T18:52:36.102Z,29.55
2019-02-26T18:55:28.275Z,30.05
2019-02-26T18:58:17.050Z,30.68
2019-02-26T19:01:08.021Z,27.75
2019-02-26T19:03:58.594Z,30.65
2019-02-26T19:06:48.295Z,31.02
2019-02-26T19:09:38.271Z,28.67
2019-02-26T19:12:30.226Z,31.82
2019-02-26T19:15:19.733Z,31.45
2019-02-26T19:18:10.969Z,30.27
2019-02-26T19:21:01.185Z,30.72
2019-02-26T19:23:51.287Z,35.08
2019-02-26T19:26:44.453Z,31.57
2019-02-26T19:29:35.942Z,31.77
2019-02-26T19:32:25.984Z,33.55
2019-02-26T19:35:15.697Z,30.40
2019-02-26T19:38:05.096Z,33.63
2019-02-26T19:40:54.546Z,34.90
2019-02-26T19:43:44.378Z,36.88
2019-02-26T19:46:33.772Z,40.30
2019-02-26T19:49:23.896Z,37.05
2019-02-26T19:52:13.885Z,33.33
2019-02-26T19:55:05.845Z,34.83
2019-02-26T19:57:55.386Z,32.42
2019-02-26T20:00:45.262Z,34.00
2019-02-26T20:03:39.842Z,31.68
2019-02-26T20:06:27.275Z,34.05
2019-02-26T20:09:17.346Z,33.65
2019-02-26T20:12:07.585Z,33.75
2019-02-26T20:14:57.425Z,35.38
2019-02-26T20:17:49.119Z,31.65
2019-02-26T20:20:41.061Z,31.25
2019-02-26T20:23:30.107Z,31.40
2019-02-26T20:26:20.155Z,34.55
2019-02-26T20:29:09.891Z,36.50
2019-02-26T20:31:59.555Z,33.15
2019-02-26T20:34:49.049Z,29.90
2019-02-26T20:37:38.702Z,34.60
2019-02-26T20:40:28.840Z,33.90
2019-02-26T20:43:18.171Z,35.55
2019-02-26T20:46:07.645Z,39.25
2019-02-26T20:48:57.623Z,35.40
2019-02-26T20:51:47.646Z,41.02
2019-02-26T20:54:37.402Z,38.50
2019-02-26T20:57:27.522Z,40.65
2019-02-26T21:00:18.117Z,34.20
2019-02-26T21:03:08.128Z,34.55
2019-02-26T21:05:58.555Z,30.43
2019-02-26T21:08:49.894Z,32.05
2019-02-26T21:11:40.201Z,30.90
2019-02-26T21:14:29.944Z,29.77
2019-02-26T21:17:19.845Z,29.90
2019-02-26T21:20:10.340Z,27.52
2019-02-26T21:23:00.145Z,27.42
2019-02-26T21:25:50.213Z,30.30
2019-02-26T21:28:40.262Z,29.07
2019-02-26T21:31:30.423Z,29.42
2019-02-26T21:34:20.362Z,30.72
2019-02-26T21:37:10.037Z,30.48
2019-02-26T21:39:59.312Z,30.97
2019-02-26T21:42:49.093Z,29.80
2019-02-26T21:45:38.752Z,28.45
2019-02-26T21:48:28.585Z,31.00
2019-02-26T21:51:18.213Z,28.07
2019-02-26T21:54:08.146Z,31.80
2019-02-26T21:56:58.188Z,27.93
2019-02-26T21:59:49.966Z,31.25
2019-02-26T22:02:38.887Z,28.17
2019-02-26T22:05:28.798Z,29.45
2019-02-26T22:08:18.752Z,32.08
2019-02-26T22:11:08.637Z,30.92
2019-02-26T22:14:02.562Z,29.82
2019-02-26T22:16:51.537Z,31.12
2019-02-26T22:19:41.386Z,27.37
2019-02-26T22:22:31.134Z,28.77
2019-02-26T22:25:21.326Z,29.02
2019-02-26T22:28:11.207Z,31.12
2019-02-26T22:31:00.916Z,27.98
2019-02-26T22:33:50.678Z,29.15
2019-02-26T22:36:40.354Z,27.87
2019-02-26T22:39:30.206Z,30.40
2019-02-26T22:42:20.193Z,26.57
2019-02-26T22:45:10.740Z,29.50
2019-02-26T22:48:00.345Z,31.07
2019-02-26T22:50:49.844Z,30.20
2019-02-26T22:53:39.632Z,31.93
2019-02-26T22:56:29.141Z,33.33
2019-02-26T22:59:18.905Z,28.17
2019-02-26T23:02:09.218Z,29.67
2019-02-26T23:05:00.237Z,29.75
2019-02-26T23:07:50.553Z,31.12
2019-02-26T23:10:42.304Z,26.93
2019-02-26T23:13:33.272Z,29.10
2019-02-26T23:16:24.434Z,28.00
2019-02-26T23:19:13.905Z,29.77
2019-02-26T23:22:04.085Z,29.07
2019-02-26T23:24:54.034Z,27.95
2019-02-26T23:27:46.124Z,28.42
2019-02-26T23:30:35.376Z,28.95
2019-02-26T23:33:24.953Z,31.93
2019-02-26T23:36:14.835Z,29.60
2019-02-26T23:39:07.415Z,28.07
2019-02-26T23:41:58.604Z,28.25
2019-02-26T23:44:50.959Z,28.25
2019-02-26T23:47:40.573Z,29.65
2019-02-26T23:50:30.417Z,31.30
2019-02-26T23:53:20.043Z,29.07
2019-02-26T23:56:09.956Z,28.50
2019-02-26T23:59:01.655Z,29.45
